createdAt,value
2022-11-14T00:00:35.006Z,100072.41
2022-11-14T00:03:06.958Z,100070.94
2022-11-14T00:05:40.160Z,100063.13
2022-11-14T00:08:09.064Z,100058.78
2022-11-14T00:10:36.378Z,100051.84
2022-11-14T00:13:03.587Z,100067.38
2022-11-14T00:15:30.773Z,100061.28
2022-11-14T00:17:58.075Z,100064.19
2022-11-14T00:20:25.413Z,100065.22
2022-11-14T00:22:52.682Z,100066.16
2022-11-14T00:25:19.877Z,100065.31
2022-11-14T00:27:47.179Z,100072.94
2022-11-14T00:30:14.868Z,100054.59
2022-11-14T00:32:42.066Z,100055.16
2022-11-14T00:35:09.700Z,100063.09
2022-11-14T00:37:37.048Z,100051.69
2022-11-14T00:40:05.149Z,100051.00
2022-11-14T00:42:32.496Z,100069.75
2022-11-14T00:44:59.844Z,100070.38
2022-11-14T00:47:27.054Z,100064.59
2022-11-14T00:49:54.431Z,100068.13
2022-11-14T00:52:21.651Z,100061.41
2022-11-14T00:54:49.064Z,100061.22
2022-11-14T00:57:16.244Z,100065.63
2022-11-14T00:59:43.432Z,100067.28
2022-11-14T01:02:10.782Z,100075.06
2022-11-14T01:04:37.895Z,100070.97
2022-11-14T01:07:05.427Z,100069.28
2022-11-14T01:09:32.872Z,100068.72
2022-11-14T01:12:00.474Z,100059.91
2022-11-14T01:14:27.624Z,100061.13
2022-11-14T01:16:54.799Z,100067.41
2022-11-14T01:19:21.972Z,100059.25
2022-11-14T01:21:49.089Z,100061.59
2022-11-14T01:24:16.291Z,100059.72
2022-11-14T01:26:43.510Z,100051.59
2022-11-14T01:29:10.692Z,100046.56
2022-11-14T01:31:37.966Z,100052.16
2022-11-14T01:34:05.262Z,100046.00
2022-11-14T01:36:32.598Z,100041.03
2022-11-14T01:38:59.766Z,100041.22
2022-11-14T01:41:27.061Z,100048.81
2022-11-14T01:43:54.575Z,100049.06
2022-11-14T01:46:33.651Z,100055.59
2022-11-14T01:49:18.480Z,100046.84
2022-11-14T01:51:53.569Z,100058.13
2022-11-14T01:54:29.814Z,100050.34
2022-11-14T01:57:01.466Z,100054.97
2022-11-14T01:59:36.724Z,100053.06
2022-11-14T02:02:12.370Z,100055.78
2022-11-14T02:04:44.587Z,100046.63
2022-11-14T02:07:13.411Z,100044.47
2022-11-14T02:09:46.065Z,100047.19
2022-11-14T02:12:17.372Z,100039.25
2022-11-14T02:14:48.452Z,100035.59
2022-11-14T02:17:33.199Z,100046.84
2022-11-14T02:20:13.010Z,100053.28
2022-11-14T02:22:42.521Z,100044.78
2022-11-14T02:25:11.809Z,100031.97
2022-11-14T02:27:40.832Z,100036.16
2022-11-14T02:30:15.705Z,100032.31
2022-11-14T02:33:10.490Z,100034.56
2022-11-14T02:35:30.301Z,100023.81
2022-11-14T02:37:57.841Z,100019.72
2022-11-14T02:40:25.601Z,100020.63
2022-11-14T02:42:52.876Z,100020.81
2022-11-14T02:45:20.962Z,100018.41
2022-11-14T02:47:48.371Z,100012.31
2022-11-14T02:50:15.753Z,100018.03
2022-11-14T02:52:42.950Z,100016.72
2022-11-14T02:55:11.046Z,100013.53
2022-11-14T02:57:38.591Z,100013.25
2022-11-14T03:00:11.831Z,100005.22
2022-11-14T03:02:41.827Z,99995.69
2022-11-14T03:05:09.327Z,99997.66
2022-11-14T03:07:36.632Z,99989.22
2022-11-14T03:10:05.184Z,99988.97
2022-11-14T03:12:32.493Z,99991.38
2022-11-14T03:14:59.656Z,99983.19
2022-11-14T03:17:26.944Z,99985.78
2022-11-14T03:19:55.865Z,99995.50
2022-11-14T03:22:23.168Z,99981.47
2022-11-14T03:24:50.485Z,99989.88
2022-11-14T03:27:17.841Z,99984.25
2022-11-14T03:29:45.214Z,99986.50
2022-11-14T03:32:12.525Z,99979.41
2022-11-14T03:34:39.744Z,99973.09
2022-11-14T03:37:06.926Z,99972.88
2022-11-14T03:39:34.147Z,99977.75
2022-11-14T03:42:01.380Z,99965.84
2022-11-14T03:44:28.629Z,99969.78
2022-11-14T03:46:55.835Z,99974.53
2022-11-14T03:49:23.011Z,99983.53
2022-11-14T03:51:50.850Z,99974.47
2022-11-14T03:54:18.202Z,99956.81
2022-11-14T03:56:45.478Z,99960.00
2022-11-14T03:59:13.712Z,99964.38
2022-11-14T04:01:41.067Z,99974.00
2022-11-14T04:04:08.556Z,99963.66
2022-11-14T04:06:35.829Z,99944.75
2022-11-14T04:09:03.313Z,99964.84
2022-11-14T04:11:30.453Z,99955.03
2022-11-14T04:13:57.689Z,99963.72
2022-11-14T04:16:24.900Z,99959.63
2022-11-14T04:18:52.093Z,99957.94
2022-11-14T04:21:19.248Z,99961.47
2022-11-14T04:23:46.738Z,99955.97
2022-11-14T04:26:14.010Z,99959.25
2022-11-14T04:28:41.186Z,99951.22
2022-11-14T04:31:08.619Z,99958.59
2022-11-14T04:33:36.015Z,99955.78
2022-11-14T04:36:03.593Z,99957.94
2022-11-14T04:38:31.228Z,99967.47
2022-11-14T04:40:58.904Z,99975.03
2022-11-14T04:43:26.118Z,99984.19
2022-11-14T04:45:53.300Z,99970.63
2022-11-14T04:48:20.487Z,99960.56
2022-11-14T04:50:47.649Z,99960.47
2022-11-14T04:53:14.949Z,99952.13
2022-11-14T04:55:43.781Z,99963.63
2022-11-14T04:58:10.964Z,99959.06
2022-11-14T05:00:38.175Z,99959.34
2022-11-14T05:03:05.372Z,99950.25
2022-11-14T05:05:36.936Z,99941.03
2022-11-14T05:08:07.893Z,99946.53
2022-11-14T05:10:35.179Z,99943.19
2022-11-14T05:13:02.463Z,99940.09
2022-11-14T05:15:29.808Z,99950.06
2022-11-14T05:17:59.095Z,99942.03
2022-11-14T05:20:26.280Z,99936.97
2022-11-14T05:22:55.516Z,99946.41
2022-11-14T05:25:23.806Z,99939.97
2022-11-14T05:27:51.624Z,99938.75
2022-11-14T05:30:19.172Z,99934.94
2022-11-14T05:32:46.869Z,99943.06
2022-11-14T05:35:14.743Z,99932.91
2022-11-14T05:37:42.243Z,99935.78
2022-11-14T05:40:10.433Z,99932.91
2022-11-14T05:42:37.554Z,99926.75
2022-11-14T05:45:05.470Z,99928.88
2022-11-14T05:47:32.577Z,99928.50
2022-11-14T05:50:00.681Z,99936.25
2022-11-14T05:52:27.846Z,99932.81
2022-11-14T05:54:55.283Z,99935.91
2022-11-14T05:57:22.555Z,99941.78
2022-11-14T05:59:49.679Z,99928.59
2022-11-14T06:22:31.370Z,99935.25
2022-11-14T06:24:58.555Z,99955.97
2022-11-14T06:27:25.708Z,99961.28
2022-11-14T06:29:52.967Z,99950.56
2022-11-14T06:32:21.536Z,99958.13
2022-11-14T06:34:48.786Z,99959.78
2022-11-14T06:37:16.008Z,99961.38
2022-11-14T06:39:43.201Z,99960.44
2022-11-14T06:42:10.393Z,99967.19
2022-11-14T06:44:37.594Z,99957.28
2022-11-14T06:47:04.920Z,99962.81
2022-11-14T06:49:35.343Z,99968.22
2022-11-14T06:52:06.707Z,99969.22
2022-11-14T06:54:34.021Z,99973.06
2022-11-14T06:57:01.428Z,99965.72
2022-11-14T06:59:28.797Z,99964.75
2022-11-14T07:01:56.122Z,99970.47
2022-11-14T07:04:23.379Z,99961.94
2022-11-14T07:06:50.700Z,99957.09
2022-11-14T07:09:18.398Z,99967.75
2022-11-14T07:11:46.909Z,99966.44
2022-11-14T07:14:14.132Z,99974.56
2022-11-14T07:16:41.511Z,99961.03
2022-11-14T07:19:12.383Z,99966.59
2022-11-14T07:21:40.436Z,99972.59
2022-11-14T07:24:07.891Z,99972.06
2022-11-14T07:26:35.101Z,99970.06
2022-11-14T07:29:03.050Z,99963.94
2022-11-14T07:31:30.742Z,99965.72
2022-11-14T07:33:57.923Z,99962.91
2022-11-14T07:36:25.088Z,99958.13
2022-11-14T07:38:52.221Z,99957.50
2022-11-14T07:41:19.533Z,99957.84
2022-11-14T07:43:47.079Z,99966.34
2022-11-14T07:46:17.385Z,99952.41
2022-11-14T07:48:45.961Z,99957.28
2022-11-14T07:51:19.209Z,99959.34
2022-11-14T07:53:46.649Z,99959.59
2022-11-14T07:56:14.474Z,99959.72
2022-11-14T07:58:43.239Z,99963.44
2022-11-14T08:01:13.354Z,99957.19
2022-11-14T08:03:45.322Z,99945.72
2022-11-14T08:06:16.160Z,99958.78
2022-11-14T08:08:43.608Z,99948.31
2022-11-14T08:11:11.596Z,99960.53
2022-11-14T08:13:38.829Z,99952.03
2022-11-14T08:16:12.929Z,99944.75
2022-11-14T08:18:41.163Z,99949.16
2022-11-14T08:21:08.760Z,99941.59
2022-11-14T08:23:36.225Z,99939.91
2022-11-14T08:26:03.504Z,99944.47
2022-11-14T08:28:30.993Z,99945.78
2022-11-14T08:31:03.947Z,99948.31
2022-11-14T08:33:32.297Z,99947.66
2022-11-14T08:36:03.899Z,99937.13
2022-11-14T08:38:35.323Z,99941.88
2022-11-14T08:41:03.672Z,99938.59
2022-11-14T08:43:32.604Z,99943.06
2022-11-14T08:46:05.333Z,99933.91
2022-11-14T08:48:33.627Z,99938.66
2022-11-14T08:51:07.858Z,99945.41
2022-11-14T08:53:35.562Z,99935.19
2022-11-14T08:56:03.358Z,99939.78
2022-11-14T08:58:32.798Z,99936.25
2022-11-14T09:01:06.240Z,99941.84
2022-11-14T09:03:34.417Z,99932.03
2022-11-14T09:06:03.469Z,99932.75
2022-11-14T09:08:31.833Z,99930.81
2022-11-14T09:11:05.526Z,99928.38
2022-11-14T09:13:34.963Z,99926.28
2022-11-14T09:16:02.992Z,99920.56
2022-11-14T09:18:31.699Z,99915.41
2022-11-14T09:21:05.685Z,99919.34
2022-11-14T09:23:33.701Z,99918.25
2022-11-14T09:26:09.246Z,99887.75
2022-11-14T09:28:37.556Z,99900.56
2022-11-14T09:31:11.038Z,99902.88
2022-11-14T09:33:38.954Z,99893.41
2022-11-14T09:36:10.667Z,99889.91
2022-11-14T09:38:38.936Z,99889.97
2022-11-14T09:41:09.115Z,99886.69
2022-11-14T09:44:22.374Z,99876.72
2022-11-14T09:47:01.588Z,99882.59
2022-11-14T09:49:43.530Z,99886.00
2022-11-14T09:52:30.047Z,99880.63
2022-11-14T09:55:01.699Z,99888.19
2022-11-14T09:57:29.802Z,99894.88
2022-11-14T09:59:57.550Z,99883.06
2022-11-14T10:02:52.612Z,99874.94
2022-11-14T10:05:58.859Z,99879.34
2022-11-14T10:08:34.826Z,99866.66
2022-11-14T10:11:24.392Z,99864.81
2022-11-14T10:14:40.606Z,99846.41
2022-11-14T10:17:32.712Z,99850.59
2022-11-14T10:20:16.322Z,99837.81
2022-11-14T10:23:07.503Z,99835.53
2022-11-14T10:26:10.225Z,99834.75
2022-11-14T10:29:21.848Z,99822.44
2022-11-14T10:32:17.093Z,99819.13
2022-11-14T10:34:59.890Z,99808.50
2022-11-14T10:37:55.352Z,99811.66
2022-11-14T10:40:31.350Z,99793.06
2022-11-14T10:43:22.068Z,99792.47
2022-11-14T10:46:02.778Z,99788.28
2022-11-14T10:48:39.607Z,99784.97
2022-11-14T10:51:36.250Z,99787.06
2022-11-14T10:54:38.788Z,99793.16
2022-11-14T10:57:20.628Z,99781.25
2022-11-14T10:59:48.561Z,99776.47
2022-11-14T11:02:15.931Z,99778.78
2022-11-14T11:04:45.382Z,99772.28
2022-11-14T11:07:32.455Z,99760.56
2022-11-14T11:10:22.196Z,99760.81
2022-11-14T11:12:54.239Z,99762.91
2022-11-14T11:15:27.479Z,99757.47
2022-11-14T11:17:59.697Z,99744.91
2022-11-14T11:20:41.771Z,99745.31
2022-11-14T11:23:11.536Z,99727.53
2022-11-14T11:25:40.594Z,99728.59
2022-11-14T11:28:13.419Z,99726.09
2022-11-14T11:30:54.799Z,99718.34
2022-11-14T11:33:21.913Z,99720.84
2022-11-14T11:35:53.353Z,99713.13
2022-11-14T11:38:22.153Z,99715.84
2022-11-14T11:40:54.760Z,99712.69
2022-11-14T11:43:39.907Z,99714.97
2022-11-14T11:46:20.510Z,99702.84
2022-11-14T11:48:54.342Z,99697.81
2022-11-14T11:51:26.972Z,99701.75
2022-11-14T11:54:15.848Z,99695.47
2022-11-14T11:56:48.237Z,99701.31
2022-11-14T11:59:52.179Z,99699.63
2022-11-14T12:02:26.370Z,99701.69
2022-11-14T12:04:56.277Z,99700.84
2022-11-14T12:07:40.208Z,99698.50
2022-11-14T12:10:24.903Z,99694.28
2022-11-14T12:13:23.890Z,99690.09
2022-11-14T12:16:13.358Z,99697.81
2022-11-14T12:19:17.381Z,99676.44
2022-11-14T12:22:03.008Z,99676.63
2022-11-14T12:24:50.821Z,99684.97
2022-11-14T12:27:20.891Z,99670.50
2022-11-14T12:30:09.904Z,99665.47
2022-11-14T12:33:36.049Z,99649.94
2022-11-14T12:36:08.991Z,99647.59
2022-11-14T12:39:03.097Z,99649.88
2022-11-14T12:41:38.091Z,99645.88
2022-11-14T12:44:28.425Z,99645.22
2022-11-14T12:47:07.980Z,99640.75
2022-11-14T12:49:53.108Z,99640.09
2022-11-14T12:55:25.944Z,99634.63
2022-11-14T12:58:04.800Z,99626.00
2022-11-14T13:00:36.374Z,99630.78
2022-11-14T13:04:11.066Z,99624.66
2022-11-14T13:07:07.534Z,99611.41
2022-11-14T13:10:01.432Z,99614.06
2022-11-14T13:12:54.822Z,99604.38
2022-11-14T13:16:10.145Z,99598.47
2022-11-14T13:19:09.414Z,99603.03
2022-11-14T13:21:46.322Z,99587.28
2022-11-14T13:24:20.530Z,99587.22
2022-11-14T13:26:54.160Z,99588.88
2022-11-14T13:29:39.661Z,99591.06
2022-11-14T13:32:13.463Z,99593.38
2022-11-14T13:35:02.715Z,99587.03
2022-11-14T13:37:56.872Z,99581.34
2022-11-14T13:40:45.889Z,99596.38
2022-11-14T13:43:47.972Z,99588.56
2022-11-14T13:46:33.205Z,99587.88
2022-11-14T13:50:02.374Z,99573.97
2022-11-14T13:52:35.367Z,99578.53
2022-11-14T13:55:06.994Z,99572.88
2022-11-14T13:57:55.584Z,99582.03
2022-11-14T14:00:24.609Z,99561.84
2022-11-14T14:03:17.703Z,99560.78
2022-11-14T14:06:05.292Z,99569.50
2022-11-14T14:09:12.783Z,99569.50
2022-11-14T14:12:14.235Z,99555.84
2022-11-14T14:15:07.356Z,99566.44
2022-11-14T14:18:10.817Z,99553.69
2022-11-14T14:21:26.274Z,99567.50
2022-11-14T14:24:17.946Z,99564.78
2022-11-14T14:27:12.376Z,99544.06
2022-11-14T14:29:51.304Z,99548.72
2022-11-14T14:32:21.323Z,99536.94
2022-11-14T14:34:49.173Z,99546.56
2022-11-14T14:37:26.376Z,99531.69
2022-11-14T14:40:09.253Z,99533.63
2022-11-14T14:42:46.004Z,99524.81
2022-11-14T14:45:20.833Z,99534.81
2022-11-14T14:47:58.596Z,99529.38
2022-11-14T14:50:41.802Z,99534.44
2022-11-14T14:53:23.505Z,99541.41
2022-11-14T14:56:22.626Z,99536.66
2022-11-14T14:58:49.777Z,99533.78
2022-11-14T15:01:25.928Z,99534.69
2022-11-14T15:04:02.928Z,99525.97
2022-11-14T15:06:32.637Z,99539.03
2022-11-14T15:09:25.779Z,99529.47
2022-11-14T15:11:58.339Z,99537.31
2022-11-14T15:14:33.805Z,99537.09
2022-11-14T15:17:01.549Z,99543.63
2022-11-14T15:19:42.296Z,99526.97
2022-11-14T15:22:15.582Z,99543.09
2022-11-14T15:27:29.218Z,99536.72
2022-11-14T15:30:05.507Z,99541.31
2022-11-14T15:38:46.415Z,99548.00
2022-11-14T15:44:33.846Z,99542.59
2022-11-14T15:47:03.124Z,99535.31
2022-11-14T15:49:30.811Z,99539.09
2022-11-14T15:52:03.352Z,99539.19
2022-11-14T15:54:37.814Z,99532.47
2022-11-14T15:57:17.399Z,99539.00
2022-11-14T15:59:45.335Z,99540.50
2022-11-14T16:02:21.636Z,99532.16
2022-11-14T16:04:52.448Z,99538.47
2022-11-14T16:10:08.449Z,99536.50
2022-11-14T16:12:55.627Z,99536.09
2022-11-14T16:15:29.213Z,99532.16
2022-11-14T16:23:44.317Z,99533.53
2022-11-14T16:34:42.731Z,99531.06
2022-11-14T16:37:21.848Z,99541.06
2022-11-14T16:55:04.396Z,99542.56
2022-11-14T16:57:32.117Z,99540.50
2022-11-14T17:00:00.193Z,99540.94
2022-11-14T17:02:27.489Z,99536.75
2022-11-14T17:04:55.593Z,99532.59
2022-11-14T17:07:23.766Z,99534.47
2022-11-14T17:09:51.065Z,99538.25
2022-11-14T17:12:18.361Z,99537.66
2022-11-14T17:14:46.063Z,99540.38
2022-11-14T17:17:13.437Z,99516.97
2022-11-14T17:19:46.650Z,99523.72
2022-11-14T17:22:16.413Z,99524.75
2022-11-14T17:24:43.715Z,99534.22
2022-11-14T17:27:13.046Z,99533.97
2022-11-14T17:29:41.264Z,99526.88
2022-11-14T17:32:09.044Z,99528.75
2022-11-14T17:37:39.439Z,99528.38
2022-11-14T17:40:11.472Z,99540.91
2022-11-14T17:42:42.547Z,99528.78
2022-11-14T17:45:10.554Z,99531.28
2022-11-14T17:47:38.793Z,99530.25
2022-11-14T17:50:06.840Z,99521.50
2022-11-14T17:52:34.088Z,99522.34
2022-11-14T17:55:01.887Z,99527.34
2022-11-14T17:57:30.628Z,99527.97
2022-11-14T18:13:22.614Z,99518.00
2022-11-14T18:15:49.833Z,99525.13
2022-11-14T18:18:19.546Z,99518.50
2022-11-14T18:20:48.063Z,99530.81
2022-11-14T18:23:16.276Z,99522.84
2022-11-14T18:25:43.904Z,99515.34
2022-11-14T18:30:57.077Z,99513.88
2022-11-14T18:33:24.368Z,99518.50
2022-11-14T18:36:09.704Z,99518.06
2022-11-14T18:38:44.251Z,99516.81
2022-11-14T18:41:19.721Z,99505.53
2022-11-14T18:43:47.678Z,99507.00
2022-11-14T18:46:22.475Z,99506.81
2022-11-14T18:58:42.336Z,99516.41
2022-11-14T19:01:22.030Z,99512.00
2022-11-14T19:37:25.633Z,99501.06
2022-11-14T19:40:05.243Z,99484.56
2022-11-14T19:59:39.180Z,99480.59
2022-11-14T20:02:09.897Z,99472.03
2022-11-14T20:16:25.911Z,99464.28
2022-11-14T20:18:59.102Z,99462.41
2022-11-14T20:24:27.726Z,99459.69
2022-11-14T20:26:57.756Z,99448.22
2022-11-14T20:29:46.206Z,99460.13
2022-11-14T20:32:20.073Z,99453.22
2022-11-14T21:14:02.888Z,99433.81
2022-11-14T21:19:28.979Z,99417.53
2022-11-14T21:39:08.702Z,99418.56
2022-11-14T21:41:40.448Z,99411.88
2022-11-14T21:44:14.663Z,99417.09
2022-11-14T21:46:45.395Z,99418.56
2022-11-14T21:49:14.348Z,99417.31
2022-11-14T21:51:49.802Z,99410.44
2022-11-14T21:54:32.541Z,99409.19
